This is the latest recevied weather packets stored in our database for station/object VE7GEL. If no packets are shown the sender has not sent any weather packets the latest 10 day(s).
| Time | Temp. | Humidity | Pressure | Rain* | Wind** | Luminosity | Snow |
|---|---|---|---|---|---|---|---|
| 1777587303 | 13.33° C | 83% | 1018.9 hPa | 0 mm | - | 271 W/m² | - |
| 1777586621 | 13.89° C | 81% | 1018.6 hPa | 0 mm | - | 141 W/m² | - |
| 1777585720 | 13.89° C | 84% | 1018.8 hPa | 0 mm | - | 154 W/m² | - |
| 1777584821 | 16.11° C | 74% | 1019 hPa | 0 mm | - | 147 W/m² | - |
| 1777583917 | 17.22° C | 71% | 1019 hPa | 0 mm | - | 144 W/m² | - |
| 1777583703 | 17.78° C | 68% | 1019.4 hPa | 0 mm | - | 146 W/m² | - |
| 1777583017 | 17.22° C | 66% | 1019.1 hPa | 0 mm | - | 151 W/m² | - |
| 1777582118 | 15.56° C | 73% | 1019.3 hPa | 0 mm | - | 131 W/m² | - |
| 1777581218 | 15° C | 79% | 1019.4 hPa | 0 mm | - | 120 W/m² | - |
| 1777580320 | 14.44° C | 79% | 1019.5 hPa | 0 mm | - | 96 W/m² | - |
| 1777580102 | 13.89° C | 81% | 1019.9 hPa | 0 mm | - | 96 W/m² | - |
| 1777579415 | 13.89° C | 80% | 1019.6 hPa | 0 mm | - | 106 W/m² | - |
| 1777578515 | 14.44° C | 79% | 1019.8 hPa | 0 mm | - | 103 W/m² | - |
| 1777578303 | 14.44° C | 80% | 1020.1 hPa | 0 mm | - | 99 W/m² | - |
| 1777577612 | 15.56° C | 77% | 1020 hPa | 0 mm | - | 90 W/m² | - |
| 1777576713 | 16.67° C | 68% | 1020.1 hPa | 0 mm | - | 76 W/m² | - |
| 1777575813 | 15.56° C | 73% | 1020.2 hPa | 0 mm | - | 72 W/m² | - |
| 1777574913 | 13.89° C | 81% | 1020.2 hPa | 0 mm | - | 70 W/m² | - |
| 1777574702 | 13.89° C | 80% | 1020.6 hPa | 0 mm | - | 64 W/m² | - |
| 1777574012 | 15° C | 79% | 1020.4 hPa | 0 mm | - | 59 W/m² | - |
| 1777573802 | 15.56° C | 76% | 1020.7 hPa | 0 mm | - | 61 W/m² | - |
| 1777573112 | 16.67° C | 70% | 1020.5 hPa | 0 mm | - | 89 W/m² | - |
| 1777572903 | 16.67° C | 70% | 1020.9 hPa | 0 mm | - | 96 W/m² | - |
| 1777572212 | 15.56° C | 74% | 1020.7 hPa | 0 mm | - | 88 W/m² | - |
| 1777571314 | 13.33° C | 85% | 1020.8 hPa | 0 mm | - | 66 W/m² | - |
* Rain latest hour (hover to see other rain measurements)
** Current wind speed in m/s (hover to see current wind gust speed)